createdAt,value
2018-07-06T00:01:39.585Z,74.11
2018-07-06T00:04:26.322Z,74.51
2018-07-06T00:07:13.144Z,74.63
2018-07-06T00:09:59.842Z,74.16
2018-07-06T00:12:46.564Z,74.04
2018-07-06T00:15:33.138Z,73.92
2018-07-06T00:18:20.225Z,73.58
2018-07-06T00:21:06.781Z,73.58
2018-07-06T00:23:53.598Z,73.18
2018-07-06T00:26:40.505Z,73.31
2018-07-06T00:29:27.304Z,73.02
2018-07-06T00:32:14.093Z,72.82
2018-07-06T00:35:00.946Z,72.47
2018-07-06T00:37:47.759Z,72.04
2018-07-06T00:40:34.731Z,72.20
2018-07-06T00:43:21.372Z,71.78
2018-07-06T00:46:08.220Z,72.21
2018-07-06T00:48:55.136Z,71.23
2018-07-06T00:51:42.111Z,71.88
2018-07-06T00:54:29.021Z,71.21
2018-07-06T00:57:15.877Z,70.96
2018-07-06T01:00:02.763Z,71.14
2018-07-06T01:02:49.607Z,70.55
2018-07-06T01:05:36.348Z,70.50
2018-07-06T01:08:23.440Z,71.21
2018-07-06T01:11:10.465Z,70.50
2018-07-06T01:13:57.114Z,71.15
2018-07-06T01:16:43.827Z,69.91
2018-07-06T01:19:30.726Z,70.60
2018-07-06T01:22:17.641Z,70.45
2018-07-06T01:25:04.486Z,70.56
2018-07-06T01:27:51.234Z,69.78
2018-07-06T01:30:38.185Z,70.17
2018-07-06T01:33:24.873Z,69.32
2018-07-06T01:36:11.836Z,69.74
2018-07-06T01:38:58.603Z,69.95
2018-07-06T01:41:45.632Z,69.04
2018-07-06T01:44:33.038Z,68.94
2018-07-06T01:47:19.776Z,68.62
2018-07-06T01:50:06.560Z,69.18
2018-07-06T01:52:53.743Z,69.04
2018-07-06T01:55:40.773Z,68.79
2018-07-06T01:58:27.600Z,67.96
2018-07-06T02:01:14.516Z,68.59
2018-07-06T02:04:01.284Z,67.92
2018-07-06T02:06:48.678Z,68.18
2018-07-06T02:09:35.529Z,68.22
2018-07-06T02:12:22.296Z,68.03
2018-07-06T02:15:09.084Z,68.10
2018-07-06T02:17:55.799Z,67.95
2018-07-06T02:20:42.814Z,68.15
2018-07-06T02:23:29.706Z,67.33
2018-07-06T02:26:17.161Z,67.41
2018-07-06T02:29:03.844Z,67.84
2018-07-06T02:31:50.677Z,67.76
2018-07-06T02:34:37.853Z,67.78
2018-07-06T02:37:24.754Z,67.36
2018-07-06T02:40:11.433Z,67.38
2018-07-06T02:42:58.286Z,67.81
2018-07-06T02:45:44.977Z,67.37
2018-07-06T02:48:31.642Z,67.62
2018-07-06T02:51:18.372Z,67.48
2018-07-06T02:54:05.414Z,67.30
2018-07-06T02:56:52.507Z,66.86
2018-07-06T02:59:39.311Z,67.17
2018-07-06T03:02:26.197Z,66.58
2018-07-06T03:05:12.809Z,66.55
2018-07-06T03:08:00.165Z,67.01
2018-07-06T03:10:47.063Z,67.17
2018-07-06T03:13:33.760Z,67.13
2018-07-06T03:16:20.583Z,66.40
2018-07-06T03:19:07.467Z,66.81
2018-07-06T03:21:54.388Z,66.50
2018-07-06T03:24:41.151Z,66.72
2018-07-06T03:27:28.029Z,66.50
2018-07-06T03:30:14.727Z,66.19
2018-07-06T03:33:01.797Z,66.47
2018-07-06T03:35:48.523Z,66.67
2018-07-06T03:38:35.361Z,67.04
2018-07-06T03:41:22.037Z,67.23
2018-07-06T03:44:08.732Z,66.42
2018-07-06T03:46:55.403Z,66.95
2018-07-06T03:49:42.297Z,66.70
2018-07-06T03:52:29.257Z,66.90
2018-07-06T03:55:18.321Z,66.97
2018-07-06T03:58:05.472Z,66.30
2018-07-06T04:00:52.189Z,66.39
2018-07-06T04:03:39.100Z,66.93
2018-07-06T04:06:26.398Z,66.44
2018-07-06T04:09:13.165Z,66.53
2018-07-06T04:12:00.757Z,66.09
2018-07-06T04:14:47.534Z,66.59
2018-07-06T04:17:34.517Z,66.87
2018-07-06T04:20:21.388Z,66.39
2018-07-06T04:23:08.051Z,66.93
2018-07-06T04:25:54.633Z,66.88
2018-07-06T04:28:41.382Z,66.31
2018-07-06T04:31:28.418Z,66.31
2018-07-06T04:34:15.213Z,67.05
2018-07-06T04:37:02.280Z,66.68
2018-07-06T04:39:49.207Z,66.47
2018-07-06T04:42:36.185Z,66.71
2018-07-06T04:45:23.128Z,67.09
2018-07-06T04:48:10.605Z,66.50
2018-07-06T04:50:57.460Z,66.98
2018-07-06T04:53:44.338Z,67.00
2018-07-06T04:56:31.055Z,66.78
2018-07-06T04:59:17.754Z,66.64
2018-07-06T05:02:04.720Z,66.98
2018-07-06T05:04:51.832Z,67.00
2018-07-06T05:07:38.563Z,66.49
2018-07-06T05:10:25.690Z,66.74
2018-07-06T05:13:12.559Z,66.33
2018-07-06T05:15:59.339Z,67.23
2018-07-06T05:18:46.201Z,67.32
2018-07-06T05:21:32.931Z,67.02
2018-07-06T05:24:19.924Z,67.37
2018-07-06T05:27:06.683Z,66.79
2018-07-06T05:29:53.480Z,66.93
2018-07-06T05:32:40.207Z,67.27
2018-07-06T05:35:27.092Z,66.47
2018-07-06T05:38:13.805Z,66.93
2018-07-06T05:41:00.474Z,66.58
2018-07-06T05:43:47.373Z,66.64
2018-07-06T05:46:34.174Z,66.64
2018-07-06T05:49:20.767Z,66.48
2018-07-06T05:52:07.566Z,66.53
2018-07-06T05:54:54.365Z,66.83
2018-07-06T05:57:41.378Z,66.71
2018-07-06T06:00:28.287Z,66.55
2018-07-06T06:03:15.266Z,66.49
2018-07-06T06:06:02.072Z,66.89
2018-07-06T06:08:36.475Z,66.86
2018-07-06T06:11:06.380Z,66.27
2018-07-06T06:13:36.461Z,65.97
2018-07-06T06:16:06.789Z,65.31
2018-07-06T06:18:38.338Z,65.30
2018-07-06T06:21:08.332Z,66.08
2018-07-06T06:23:38.414Z,65.15
2018-07-06T06:26:08.730Z,65.78
2018-07-06T06:28:39.232Z,65.85
2018-07-06T06:31:09.544Z,65.48
2018-07-06T06:33:40.149Z,65.07
2018-07-06T06:36:10.591Z,64.91
2018-07-06T06:38:40.905Z,65.21
2018-07-06T06:41:11.455Z,65.24
2018-07-06T06:43:41.344Z,65.35
2018-07-06T06:46:12.470Z,65.46
2018-07-06T06:48:42.723Z,64.82
2018-07-06T06:51:12.835Z,64.69
2018-07-06T06:53:43.124Z,64.23
2018-07-06T06:56:13.491Z,64.21
2018-07-06T06:58:43.929Z,63.97
2018-07-06T07:01:15.074Z,64.70
2018-07-06T07:03:45.352Z,64.62
2018-07-06T07:06:15.968Z,64.28
2018-07-06T07:08:46.323Z,64.83
2018-07-06T07:11:16.609Z,63.94
2018-07-06T07:13:47.662Z,64.02
2018-07-06T07:16:18.617Z,63.87
2018-07-06T07:18:48.869Z,64.51
2018-07-06T07:21:19.585Z,64.24
2018-07-06T07:23:50.735Z,64.25
2018-07-06T07:26:21.670Z,64.30
2018-07-06T07:28:52.540Z,63.85
2018-07-06T07:31:22.831Z,64.53
2018-07-06T07:33:53.441Z,64.49
2018-07-06T07:36:23.752Z,63.82
2018-07-06T07:38:54.210Z,63.91
2018-07-06T07:41:24.994Z,63.76
2018-07-06T07:43:55.150Z,64.72
2018-07-06T07:46:25.705Z,64.77
2018-07-06T07:48:56.411Z,63.94
2018-07-06T07:52:08.775Z,64.58
2018-07-06T07:54:56.557Z,63.77
2018-07-06T07:57:27.096Z,64.11
2018-07-06T07:59:57.257Z,63.90
2018-07-06T08:02:27.946Z,64.02
2018-07-06T08:04:59.066Z,63.97
2018-07-06T08:07:29.547Z,63.95
2018-07-06T08:09:59.626Z,63.95
2018-07-06T08:12:30.194Z,64.95
2018-07-06T08:15:01.301Z,64.79
2018-07-06T08:17:31.561Z,65.19
2018-07-06T08:20:02.314Z,63.97
2018-07-06T08:22:32.209Z,64.06
2018-07-06T08:25:02.639Z,64.10
2018-07-06T08:27:32.834Z,64.10
2018-07-06T08:30:03.610Z,64.65
2018-07-06T08:32:33.463Z,64.46
2018-07-06T08:35:14.631Z,65.00
2018-07-06T08:38:00.801Z,64.81
2018-07-06T08:40:31.079Z,65.28
2018-07-06T08:43:02.278Z,65.19
2018-07-06T08:45:33.299Z,65.07
2018-07-06T08:48:03.500Z,65.01
2018-07-06T08:50:34.226Z,65.49
2018-07-06T08:53:04.557Z,65.02
2018-07-06T08:55:34.773Z,65.88
2018-07-06T08:58:05.087Z,65.71
2018-07-06T09:00:35.406Z,65.84
2018-07-06T09:03:06.179Z,65.32
2018-07-06T09:05:36.481Z,65.50
2018-07-06T09:08:06.720Z,65.06
2018-07-06T09:10:37.015Z,65.67
2018-07-06T09:13:07.908Z,65.22
2018-07-06T09:15:38.400Z,65.35
2018-07-06T09:18:08.545Z,65.51
2018-07-06T09:20:38.852Z,65.82
2018-07-06T09:23:09.502Z,65.33
2018-07-06T09:25:40.373Z,65.73
2018-07-06T09:28:10.574Z,66.07
2018-07-06T09:30:40.766Z,65.81
2018-07-06T09:33:10.869Z,65.85
2018-07-06T09:35:41.511Z,66.47
2018-07-06T09:38:11.988Z,66.98
2018-07-06T09:40:42.218Z,66.43
2018-07-06T09:43:12.479Z,67.12
2018-07-06T09:45:42.807Z,66.67
2018-07-06T09:48:13.511Z,66.98
2018-07-06T09:50:43.749Z,67.61
2018-07-06T09:53:14.150Z,67.36
2018-07-06T09:55:44.412Z,66.94
2018-07-06T09:58:14.579Z,67.83
2018-07-06T10:00:49.946Z,68.10
2018-07-06T10:03:20.241Z,67.29
2018-07-06T10:05:57.297Z,67.74
2018-07-06T10:08:27.516Z,68.28
2018-07-06T10:10:57.690Z,68.25
2018-07-06T10:13:28.030Z,68.04
2018-07-06T10:15:58.286Z,68.40
2018-07-06T10:18:29.105Z,68.73
2018-07-06T10:20:59.438Z,68.52
2018-07-06T10:23:29.545Z,69.19
2018-07-06T10:25:59.944Z,69.75
2018-07-06T10:28:40.484Z,70.01
2018-07-06T10:31:32.810Z,69.93
2018-07-06T10:34:02.710Z,70.13
2018-07-06T10:36:32.630Z,69.70
2018-07-06T10:39:02.901Z,70.63
2018-07-06T10:41:32.975Z,70.83
2018-07-06T10:44:03.373Z,70.31
2018-07-06T10:46:33.584Z,70.62
2018-07-06T10:49:04.151Z,70.67
2018-07-06T10:51:34.573Z,71.26
2018-07-06T10:54:04.786Z,71.53
2018-07-06T10:56:34.950Z,71.49
2018-07-06T10:59:05.323Z,70.98
2018-07-06T11:01:35.724Z,71.82
2018-07-06T11:04:05.964Z,71.50
2018-07-06T11:06:36.368Z,71.97
2018-07-06T11:09:06.791Z,71.61
2018-07-06T11:11:37.222Z,71.48
2018-07-06T11:14:07.914Z,71.65
2018-07-06T11:16:38.160Z,71.15
2018-07-06T11:19:14.750Z,71.08
2018-07-06T11:21:45.257Z,71.07
2018-07-06T11:24:15.335Z,71.17
2018-07-06T11:26:45.710Z,71.52
2018-07-06T11:29:15.916Z,71.65
2018-07-06T11:31:46.169Z,71.42
2018-07-06T11:34:16.339Z,71.14
2018-07-06T11:36:47.317Z,71.64
2018-07-06T11:39:17.412Z,71.51
2018-07-06T11:41:48.008Z,71.12
2018-07-06T11:44:18.448Z,70.91
2018-07-06T11:46:48.579Z,70.79
2018-07-06T11:49:19.105Z,71.26
2018-07-06T11:51:49.854Z,70.66
2018-07-06T11:54:20.074Z,70.78
2018-07-06T11:56:50.411Z,71.64
2018-07-06T11:59:20.726Z,71.51
2018-07-06T12:01:50.832Z,71.33
2018-07-06T12:04:21.261Z,71.32
2018-07-06T12:06:52.325Z,71.44
2018-07-06T12:09:22.355Z,71.42
2018-07-06T12:11:52.577Z,71.61
2018-07-06T12:14:22.602Z,71.35
2018-07-06T12:16:52.772Z,71.12
2018-07-06T12:19:23.256Z,70.71
2018-07-06T12:21:53.767Z,70.56
2018-07-06T12:24:24.051Z,70.91
2018-07-06T12:26:54.266Z,70.95
2018-07-06T12:29:24.223Z,70.46
2018-07-06T12:31:54.250Z,70.91
2018-07-06T12:34:24.456Z,70.19
2018-07-06T12:36:54.679Z,70.84
2018-07-06T12:39:25.115Z,70.44
2018-07-06T12:41:55.279Z,70.57
2018-07-06T12:44:25.369Z,70.28
2018-07-06T12:46:55.528Z,70.26
2018-07-06T12:49:25.707Z,69.90
2018-07-06T12:51:55.959Z,70.71
2018-07-06T12:54:26.110Z,69.57
2018-07-06T12:56:56.323Z,69.41
2018-07-06T12:59:26.650Z,69.27
2018-07-06T13:01:56.848Z,68.75
2018-07-06T13:04:27.111Z,68.59
2018-07-06T13:06:57.215Z,68.12
2018-07-06T13:09:27.281Z,68.06
2018-07-06T13:11:57.347Z,67.72
2018-07-06T13:14:27.719Z,67.77
2018-07-06T13:16:58.171Z,67.13
2018-07-06T13:19:28.378Z,67.06
2018-07-06T13:21:58.629Z,67.08
2018-07-06T13:24:28.895Z,67.05
2018-07-06T13:26:59.125Z,66.12
2018-07-06T13:29:29.316Z,66.28
2018-07-06T13:31:59.682Z,65.68
2018-07-06T13:34:29.893Z,66.14
2018-07-06T13:37:00.048Z,66.03
2018-07-06T13:39:30.810Z,65.30
2018-07-06T17:18:20.336Z,68.22
2018-07-06T17:20:50.566Z,68.06
2018-07-06T17:23:21.083Z,68.80
2018-07-06T17:25:51.311Z,68.76
2018-07-06T17:28:21.789Z,69.21
2018-07-06T17:30:51.947Z,68.47
2018-07-06T17:33:22.235Z,68.74
2018-07-06T17:35:52.653Z,69.29
2018-07-06T17:38:22.945Z,69.22
2018-07-06T17:40:58.652Z,69.78
2018-07-06T17:43:29.331Z,69.98
2018-07-06T17:45:59.788Z,69.99
2018-07-06T17:48:29.784Z,70.24
2018-07-06T17:51:00.045Z,70.12
2018-07-06T17:53:30.281Z,70.18
2018-07-06T17:56:00.991Z,70.15
2018-07-06T17:58:31.280Z,69.87
2018-07-06T18:01:01.767Z,70.32
2018-07-06T18:03:31.999Z,70.00
2018-07-06T18:06:02.548Z,69.75
2018-07-06T18:08:32.644Z,69.51
2018-07-06T18:11:02.860Z,68.62
2018-07-06T18:13:33.238Z,68.59
2018-07-06T18:16:03.997Z,69.23
2018-07-06T18:18:34.380Z,69.59
2018-07-06T18:21:04.691Z,69.48
2018-07-06T18:23:35.298Z,69.18
2018-07-06T18:26:05.571Z,69.57
2018-07-06T18:28:35.846Z,69.76
2018-07-06T18:31:06.280Z,70.10
2018-07-06T18:33:36.383Z,69.94
2018-07-06T18:36:06.610Z,70.54
2018-07-06T18:38:37.000Z,69.68
2018-07-06T18:41:07.267Z,69.62
2018-07-06T18:43:37.343Z,69.53
2018-07-06T18:46:07.901Z,69.86
2018-07-06T18:48:38.174Z,69.75
2018-07-06T18:51:08.636Z,69.94
2018-07-06T18:53:38.974Z,69.98
2018-07-06T18:56:08.984Z,70.31
2018-07-06T18:58:39.385Z,71.04
2018-07-06T19:01:09.931Z,71.36
2018-07-06T19:03:39.957Z,72.31
2018-07-06T19:06:10.288Z,72.09
2018-07-06T19:08:46.992Z,73.27
2018-07-06T19:11:17.120Z,73.82
2018-07-06T19:13:48.228Z,74.42
2018-07-06T19:16:18.370Z,74.64
2018-07-06T19:18:48.760Z,74.16
2018-07-06T19:21:18.839Z,75.03
2018-07-06T19:23:49.130Z,74.68
2018-07-06T19:26:19.208Z,75.68
2018-07-06T19:28:49.392Z,75.11
2018-07-06T19:31:19.640Z,76.31
2018-07-06T19:33:50.087Z,76.65
2018-07-06T19:36:20.235Z,76.24
2018-07-06T19:38:50.781Z,76.77
2018-07-06T19:41:20.967Z,76.57
2018-07-06T19:43:51.339Z,76.81
2018-07-06T19:46:21.669Z,77.25
2018-07-06T19:48:51.958Z,77.66
2018-07-06T19:51:22.253Z,76.98
2018-07-06T19:53:52.328Z,77.34
2018-07-06T19:56:22.595Z,77.69
2018-07-06T19:58:52.882Z,77.83
2018-07-06T20:01:23.062Z,77.88
2018-07-06T20:03:54.208Z,78.93
2018-07-06T20:06:25.581Z,78.36
2018-07-06T20:08:56.186Z,78.92
2018-07-06T20:17:02.861Z,79.66
2018-07-06T20:19:32.952Z,79.87
2018-07-06T20:22:04.492Z,79.62
2018-07-06T20:24:34.886Z,79.82
2018-07-06T20:27:06.324Z,79.80
2018-07-06T20:29:36.516Z,80.43
2018-07-06T20:32:06.623Z,80.08
2018-07-06T20:34:36.861Z,80.87
2018-07-06T20:37:07.071Z,80.38
2018-07-06T20:39:37.526Z,80.43
2018-07-06T20:42:07.818Z,80.37
2018-07-06T20:44:38.021Z,80.70
2018-07-06T20:47:09.214Z,80.58
2018-07-06T20:49:39.518Z,80.41
2018-07-06T20:52:16.051Z,80.69
2018-07-06T20:54:46.193Z,81.09
2018-07-06T20:57:16.428Z,80.93
2018-07-06T20:59:46.775Z,80.73
2018-07-06T21:02:16.859Z,80.58
2018-07-06T21:04:50.079Z,80.35
2018-07-06T21:07:20.386Z,80.52
2018-07-06T21:09:51.549Z,80.28
2018-07-06T21:12:21.859Z,80.46
2018-07-06T21:14:52.132Z,79.86
2018-07-06T21:17:22.398Z,80.41
2018-07-06T21:19:52.898Z,80.68
2018-07-06T21:22:23.321Z,80.61
2018-07-06T21:24:54.149Z,80.28
2018-07-06T21:27:24.605Z,80.42
2018-07-06T21:29:54.859Z,80.68
2018-07-06T21:32:25.195Z,80.25
2018-07-06T21:34:55.474Z,80.02
2018-07-06T21:37:25.835Z,80.25
2018-07-06T21:39:55.909Z,80.69
2018-07-06T21:42:26.240Z,80.41
2018-07-06T21:44:56.723Z,80.66
2018-07-06T21:47:26.983Z,80.58
2018-07-06T21:49:57.494Z,80.47
2018-07-06T21:52:27.785Z,80.36
2018-07-06T21:54:57.743Z,80.90
2018-07-06T21:57:28.556Z,80.41
2018-07-06T21:59:58.727Z,80.42
2018-07-06T22:02:29.141Z,80.94
2018-07-06T22:04:58.978Z,80.70
2018-07-06T22:07:28.708Z,80.51
2018-07-06T22:09:59.064Z,81.15
2018-07-06T22:12:29.203Z,80.87
2018-07-06T22:14:59.187Z,81.57
2018-07-06T22:17:29.558Z,81.37
2018-07-06T22:19:59.762Z,80.89
2018-07-06T22:22:29.892Z,81.46
2018-07-06T22:25:01.337Z,81.65
2018-07-06T22:27:31.546Z,81.85
2018-07-06T22:30:01.821Z,82.08
2018-07-06T22:32:31.706Z,81.95
2018-07-06T22:35:02.030Z,82.23
2018-07-06T22:37:32.205Z,82.26
2018-07-06T22:40:02.588Z,81.70
2018-07-06T22:42:32.857Z,81.77
2018-07-06T22:45:03.242Z,81.47
2018-07-06T22:47:33.823Z,82.38
2018-07-06T22:50:04.139Z,81.62
2018-07-06T22:52:34.507Z,82.20
2018-07-06T22:55:11.149Z,81.96
2018-07-06T22:57:41.419Z,81.97
2018-07-06T23:00:11.661Z,82.21
2018-07-06T23:02:41.231Z,81.60
2018-07-06T23:05:17.906Z,81.44
2018-07-06T23:07:48.256Z,81.10
2018-07-06T23:10:18.281Z,81.33
2018-07-06T23:12:48.471Z,81.56
2018-07-06T23:15:18.886Z,81.04
2018-07-06T23:17:49.072Z,81.78
2018-07-06T23:20:19.263Z,81.73
2018-07-06T23:23:07.186Z,81.41
2018-07-06T23:25:49.547Z,80.62
2018-07-06T23:28:19.923Z,80.61
2018-07-06T23:30:50.276Z,81.05
2018-07-06T23:33:20.501Z,80.93
2018-07-06T23:35:50.646Z,81.03
2018-07-06T23:38:20.762Z,80.45
2018-07-06T23:40:51.062Z,80.22
2018-07-06T23:43:21.371Z,80.83
2018-07-06T23:45:51.698Z,80.82
2018-07-06T23:48:21.836Z,80.59
2018-07-06T23:50:52.547Z,80.43
2018-07-06T23:53:25.833Z,80.08
2018-07-06T23:55:56.268Z,80.31
2018-07-06T23:58:26.450Z,80.39
